Time;durP1;ratioP1;P1;durP2;ratioP2;P2;SDS_P1;SDS_P2;PMS_P1;PMS_P2;Temp;Humidity;BMP_temperature;BMP_pressure;BME280_temperature;BME280_humidity;BME280_pressure;Samples;Min_cycle;Max_cycle;Signal;HPM_P1;HPM_P2
2022/12/12 00:02:02;;;;;;;;;;;;;;;2.03;100.00;98640.44;5005853;28;19914;-72
2022/12/12 00:04:28;;;;;;;;;;;;;;;2.23;100.00;98655.56;5005612;28;19920;-72
2022/12/12 00:06:53;;;;;;;;;;;;;;;2.32;100.00;98659.78;5004757;28;19965;-72
2022/12/12 00:09:18;;;;;;;;;;;;;;;2.93;100.00;98677.25;5005495;28;19924;-72
2022/12/12 00:11:43;;;;;;;;;;;;;;;3.18;100.00;98687.25;5005501;28;19917;-72
2022/12/12 00:14:09;;;;;;;;;;;;;;;2.92;100.00;98665.41;5005708;28;19917;-72
2022/12/12 00:16:34;;;;;;;;;;;;;;;2.91;100.00;98660.31;5005328;28;20000;-72
2022/12/12 00:18:59;;;;;;;;;;;;;;;2.23;100.00;98637.78;5004524;28;20043;-72
2022/12/12 00:21:26;;;;;;;;;;;;;;;2.26;100.00;98642.03;5005370;28;19957;-72
2022/12/12 00:23:51;;;;;;;;;;;;;;;1.71;100.00;98643.06;5004966;28;19913;-72
2022/12/12 00:26:18;;;;;;;;;;;;;;;2.14;100.00;98668.31;5004019;28;19920;-72
2022/12/12 00:28:43;;;;;;;;;;;;;;;2.05;100.00;98687.00;5002862;28;19921;-72
2022/12/12 00:31:09;;;;;;;;;;;;;;;2.13;100.00;98703.91;5003668;28;20212;-72
2022/12/12 00:33:34;;;;;;;;;;;;;;;1.78;100.00;98700.59;5004534;28;19918;-72
2022/12/12 00:35:59;;;;;;;;;;;;;;;1.90;100.00;98714.97;5004116;28;20008;-71
2022/12/12 00:38:24;;;;;;;;;;;;;;;2.05;100.00;98724.22;5003023;28;19925;-72
2022/12/12 00:40:54;;;;;;;;;;;;;;;2.66;100.00;98735.88;5003757;28;19971;-72
2022/12/12 00:43:19;;;;;;;;;;;;;;;2.85;100.00;98724.78;5002904;28;19937;-72
2022/12/12 00:45:44;;;;;;;;;;;;;;;2.18;100.00;98704.72;5004783;28;20284;-72
2022/12/12 00:48:09;;;;;;;;;;;;;;;2.58;100.00;98707.09;5003652;28;20442;-72
2022/12/12 00:50:35;;;;;;;;;;;;;;;2.61;100.00;98707.09;5004712;28;20461;-71
2022/12/12 00:53:00;;;;;;;;;;;;;;;3.07;100.00;98714.47;5003561;28;20668;-72
2022/12/12 00:55:25;;;;;;;;;;;;;;;2.65;100.00;98698.63;5004964;28;19933;-71
2022/12/12 00:57:52;;;;;;;;;;;;;;;2.01;100.00;98687.84;5003272;28;19921;-72
2022/12/12 01:00:17;;;;;;;;;;;;;;;1.97;100.00;98693.78;5002596;28;19921;-72
2022/12/12 01:02:42;;;;;;;;;;;;;;;2.53;100.00;98711.38;5003474;28;19924;-72
2022/12/12 01:05:08;;;;;;;;;;;;;;;2.21;100.00;98709.78;5004906;28;19917;-72
2022/12/12 01:07:33;;;;;;;;;;;;;;;2.57;100.00;98720.66;5004225;28;19923;-72
2022/12/12 01:09:59;;;;;;;;;;;;;;;2.76;100.00;98724.84;5004242;28;19917;-72
2022/12/12 01:12:24;;;;;;;;;;;;;;;2.99;100.00;98718.75;5003279;28;20000;-72
2022/12/12 01:14:49;;;;;;;;;;;;;;;2.64;100.00;98709.63;5004839;28;19922;-72
2022/12/12 01:17:14;;;;;;;;;;;;;;;3.21;100.00;98715.22;5003131;28;19918;-72
2022/12/12 01:19:39;;;;;;;;;;;;;;;2.63;100.00;98697.78;5004275;28;19992;-72
2022/12/12 01:22:05;;;;;;;;;;;;;;;2.65;100.00;98703.69;5004312;28;19924;-72
2022/12/12 01:24:30;;;;;;;;;;;;;;;2.39;100.00;98704.63;5004336;28;20016;-72
2022/12/12 01:26:55;;;;;;;;;;;;;;;1.67;100.00;98702.28;5004760;28;19962;-72
2022/12/12 01:29:20;;;;;;;;;;;;;;;1.76;100.00;98717.50;5006740;28;20613;-71
2022/12/12 01:31:46;;;;;;;;;;;;;;;2.28;100.00;98736.84;5007301;28;20328;-71
2022/12/12 01:34:11;;;;;;;;;;;;;;;2.20;100.00;98743.69;5007366;28;19968;-72
2022/12/12 01:36:36;;;;;;;;;;;;;;;2.78;100.00;98753.63;5008540;28;19924;-74
2022/12/12 01:39:02;;;;;;;;;;;;;;;2.47;100.00;98746.13;5006867;28;19922;-72
2022/12/12 01:41:27;;;;;;;;;;;;;;;2.07;100.00;98747.94;5006740;28;20485;-72
2022/12/12 01:43:52;;;;;;;;;;;;;;;2.45;100.00;98754.63;5006743;28;20287;-72
2022/12/12 01:46:21;;;;;;;;;;;;;;;2.40;100.00;98769.03;5006109;28;19918;-72
2022/12/12 01:48:50;;;;;;;;;;;;;;;1.99;100.00;98755.56;5008048;28;19955;-72
2022/12/12 01:51:16;;;;;;;;;;;;;;;1.91;100.00;98767.41;5006231;28;19917;-72
2022/12/12 01:53:42;;;;;;;;;;;;;;;2.35;100.00;98783.44;5006697;28;19922;-72
2022/12/12 01:56:10;;;;;;;;;;;;;;;2.06;100.00;98777.56;5006034;28;19929;-72
2022/12/12 01:58:39;;;;;;;;;;;;;;;2.20;100.00;98784.31;5005652;28;20384;-72
2022/12/12 02:01:04;;;;;;;;;;;;;;;2.84;100.00;98799.38;5006537;28;19918;-71
2022/12/12 02:03:29;;;;;;;;;;;;;;;2.72;100.00;98791.81;5008066;28;19992;-71
2022/12/12 02:05:55;;;;;;;;;;;;;;;2.84;100.00;98784.13;5006015;28;19917;-71
2022/12/12 02:08:21;;;;;;;;;;;;;;;2.34;100.00;98772.44;5006643;28;19918;-71
2022/12/12 02:10:46;;;;;;;;;;;;;;;2.80;100.00;98782.44;5006663;28;20317;-71
2022/12/12 02:13:13;;;;;;;;;;;;;;;3.05;100.00;98778.06;5006514;28;19921;-72
2022/12/12 02:15:41;;;;;;;;;;;;;;;3.26;100.00;98766.94;5007583;28;19921;-72
2022/12/12 02:18:11;;;;;;;;;;;;;;;3.15;100.00;98748.34;5006489;28;19918;-72
2022/12/12 02:20:44;;;;;;;;;;;;;;;2.38;100.00;98722.44;5006184;28;19913;-72
2022/12/12 02:23:31;;;;;;;;;;;;;;;2.56;100.00;98734.25;5006332;28;19921;-72
2022/12/12 02:25:59;;;;;;;;;;;;;;;3.20;100.00;98750.88;5006054;28;19932;-72
2022/12/12 02:28:26;;;;;;;;;;;;;;;3.30;100.00;98737.22;5005982;28;19922;-72
2022/12/12 02:30:58;;;;;;;;;;;;;;;3.19;100.00;98724.56;5006455;28;19917;-72
2022/12/12 02:33:32;;;;;;;;;;;;;;;1.81;100.00;98700.56;5006767;28;19963;-72
2022/12/12 02:35:57;;;;;;;;;;;;;;;1.58;100.00;98710.75;5007383;28;19920;-72
2022/12/12 02:38:25;;;;;;;;;;;;;;;1.91;100.00;98734.41;5006551;28;19922;-72
2022/12/12 02:41:05;;;;;;;;;;;;;;;2.13;100.00;98747.09;5006774;28;20348;-72
2022/12/12 02:43:50;;;;;;;;;;;;;;;2.95;100.00;98771.34;4988456;28;19924;-72
2022/12/12 02:46:15;;;;;;;;;;;;;;;3.14;100.00;98761.91;5006246;28;19917;-71
2022/12/12 02:48:46;;;;;;;;;;;;;;;3.28;100.00;98749.94;5006552;28;19944;-72
2022/12/12 02:51:12;;;;;;;;;;;;;;;3.29;100.00;98735.53;5007050;28;20384;-72
2022/12/12 02:53:38;;;;;;;;;;;;;;;3.37;100.00;98732.94;5006995;28;19929;-72
2022/12/12 02:56:04;;;;;;;;;;;;;;;3.45;100.00;98718.44;5005126;28;20396;-72
2022/12/12 02:58:29;;;;;;;;;;;;;;;3.41;100.00;98711.69;5004972;28;20534;-72
2022/12/12 03:01:09;;;;;;;;;;;;;;;3.27;100.00;98701.63;5005656;28;20119;-72
2022/12/12 03:09:25;;;;;;;;;;;;;;;3.49;100.00;98692.97;5006457;28;19931;-71
2022/12/12 03:11:50;;;;;;;;;;;;;;;3.43;100.00;98682.81;5005419;28;20530;-71
2022/12/12 03:14:18;;;;;;;;;;;;;;;3.47;100.00;98683.66;5006425;28;19913;-71
2022/12/12 03:16:47;;;;;;;;;;;;;;;3.22;100.00;98678.75;5005216;28;19921;-71
2022/12/12 03:19:15;;;;;;;;;;;;;;;3.32;100.00;98672.72;5004688;28;19921;-71
2022/12/12 03:21:42;;;;;;;;;;;;;;;3.44;100.00;98671.75;5006808;28;19914;-71
2022/12/12 03:24:09;;;;;;;;;;;;;;;3.41;100.00;98679.44;5005065;28;19924;-71
2022/12/12 03:26:38;;;;;;;;;;;;;;;3.47;100.00;98670.91;5005472;28;19917;-71
2022/12/12 03:29:08;;;;;;;;;;;;;;;3.60;100.00;98669.94;5005632;28;19971;-71
2022/12/12 03:31:33;;;;;;;;;;;;;;;3.50;100.00;98668.34;5005174;28;19963;-71
2022/12/12 03:34:03;;;;;;;;;;;;;;;3.33;100.00;98656.59;5004352;28;19913;-71
2022/12/12 03:36:31;;;;;;;;;;;;;;;3.14;100.00;98649.97;5004926;28;19921;-71
2022/12/12 03:39:00;;;;;;;;;;;;;;;3.32;100.00;98654.91;5004142;28;20360;-71
2022/12/12 03:41:27;;;;;;;;;;;;;;;3.38;100.00;98658.28;5005058;28;19918;-71
2022/12/12 03:44:22;;;;;;;;;;;;;;;3.30;100.00;98656.59;5004458;28;20268;-71
2022/12/12 03:46:51;;;;;;;;;;;;;;;3.40;100.00;98657.41;5001237;28;19917;-71
2022/12/12 03:49:20;;;;;;;;;;;;;;;3.60;100.00;98664.00;5004409;28;19918;-71
2022/12/12 03:51:47;;;;;;;;;;;;;;;3.63;100.00;98659.72;5004115;28;20504;-71
2022/12/12 03:54:16;;;;;;;;;;;;;;;3.62;100.00;98662.28;5004687;28;19944;-71
2022/12/12 03:56:46;;;;;;;;;;;;;;;3.61;100.00;98655.53;5004818;28;19952;-71
2022/12/12 03:59:17;;;;;;;;;;;;;;;3.77;100.00;98662.97;5004148;28;20007;-72
2022/12/12 04:01:45;;;;;;;;;;;;;;;3.64;100.00;98656.31;5005978;28;19943;-72
2022/12/12 04:04:22;;;;;;;;;;;;;;;3.63;100.00;98657.19;5004228;28;19928;-72
2022/12/12 04:06:50;;;;;;;;;;;;;;;3.66;100.00;98649.50;5004394;28;20009;-73
2022/12/12 04:15:30;;;;;;;;;;;;;;;3.64;100.00;98652.94;5004955;28;20537;-72
2022/12/12 04:17:55;;;;;;;;;;;;;;;3.72;100.00;98654.56;5002356;28;19921;-71
2022/12/12 04:23:32;;;;;;;;;;;;;;;3.72;100.00;98649.44;5004443;28;19944;-71
2022/12/12 04:28:53;;;;;;;;;;;;;;;3.74;100.00;98654.50;5004098;28;19924;-71
2022/12/12 04:31:18;;;;;;;;;;;;;;;3.67;100.00;98653.75;5003227;28;19922;-72
2022/12/12 04:33:46;;;;;;;;;;;;;;;3.62;100.00;98652.94;5003770;28;19960;-71
2022/12/12 04:36:11;;;;;;;;;;;;;;;3.75;100.00;98657.06;5003805;28;19917;-72
2022/12/12 04:38:37;;;;;;;;;;;;;;;3.58;100.00;98660.63;5003734;28;19983;-72
2022/12/12 04:41:02;;;;;;;;;;;;;;;3.48;100.00;98649.69;5004856;28;19921;-72
2022/12/12 04:43:27;;;;;;;;;;;;;;;3.59;100.00;98663.16;5003527;28;19964;-72
2022/12/12 04:45:54;;;;;;;;;;;;;;;3.67;100.00;98665.63;5003822;28;19918;-72
2022/12/12 04:48:22;;;;;;;;;;;;;;;3.72;100.00;98667.28;5004991;28;19913;-71
2022/12/12 04:50:48;;;;;;;;;;;;;;;3.58;100.00;98665.72;5003754;28;19917;-72
2022/12/12 04:53:14;;;;;;;;;;;;;;;3.42;100.00;98665.00;5003444;28;20024;-72
2022/12/12 04:55:41;;;;;;;;;;;;;;;3.44;100.00;98664.13;5003416;28;19913;-72
2022/12/12 04:58:06;;;;;;;;;;;;;;;3.28;100.00;98672.75;5003193;28;19921;-72
2022/12/12 05:00:45;;;;;;;;;;;;;;;3.28;100.00;98673.59;5003143;28;19975;-72
2022/12/12 05:03:13;;;;;;;;;;;;;;;3.25;100.00;98688.06;5002243;28;19933;-72
2022/12/12 05:05:58;;;;;;;;;;;;;;;3.30;100.00;98691.41;5002483;28;19929;-72
2022/12/12 05:08:40;;;;;;;;;;;;;;;3.28;100.00;98696.50;5004462;28;19976;-72
2022/12/12 05:11:05;;;;;;;;;;;;;;;3.29;100.00;98698.19;5003000;28;19921;-72
2022/12/12 05:13:32;;;;;;;;;;;;;;;3.18;100.00;98701.69;5003520;28;19952;-72
2022/12/12 05:15:58;;;;;;;;;;;;;;;3.40;100.00;98712.53;5002382;28;19928;-72
2022/12/12 05:18:23;;;;;;;;;;;;;;;3.57;100.00;98708.16;5002932;28;19924;-73
2022/12/12 05:20:49;;;;;;;;;;;;;;;3.68;100.00;98698.72;5004205;28;19921;-72
2022/12/12 05:23:14;;;;;;;;;;;;;;;3.69;100.00;98704.66;5003041;28;19929;-74
2022/12/12 05:25:39;;;;;;;;;;;;;;;3.64;100.00;98699.59;5003076;28;21007;-74
2022/12/12 05:28:04;;;;;;;;;;;;;;;3.73;100.00;98696.97;5004397;28;19917;-74
2022/12/12 05:30:30;;;;;;;;;;;;;;;3.77;100.00;98688.44;5003984;28;19979;-74
2022/12/12 05:32:55;;;;;;;;;;;;;;;3.76;100.00;98680.81;5004573;28;20052;-73
2022/12/12 05:35:20;;;;;;;;;;;;;;;3.80;100.00;98687.56;5004291;28;19961;-74
2022/12/12 05:37:46;;;;;;;;;;;;;;;3.70;100.00;98683.44;5003025;28;19964;-74
2022/12/12 05:40:11;;;;;;;;;;;;;;;3.72;100.00;98684.28;5003318;28;20663;-74
2022/12/12 05:42:36;;;;;;;;;;;;;;;3.76;100.00;98688.44;5002965;28;19914;-74
2022/12/12 05:45:02;;;;;;;;;;;;;;;3.83;100.00;98684.16;5004346;28;20008;-74
2022/12/12 05:47:27;;;;;;;;;;;;;;;3.66;100.00;98679.22;5004189;28;19913;-74
2022/12/12 05:49:53;;;;;;;;;;;;;;;3.85;100.00;98690.06;5003172;28;20383;-74
2022/12/12 05:52:18;;;;;;;;;;;;;;;3.81;100.00;98684.19;5003134;28;20407;-74
2022/12/12 05:54:43;;;;;;;;;;;;;;;3.68;100.00;98686.00;5002893;28;19923;-74
2022/12/12 05:57:08;;;;;;;;;;;;;;;3.48;100.00;98687.88;5000235;28;19975;-74
2022/12/12 05:59:34;;;;;;;;;;;;;;;2.93;100.00;98687.41;5002552;28;19940;-74
2022/12/12 06:01:59;;;;;;;;;;;;;;;2.92;100.00;98685.75;5003225;28;19924;-73
2022/12/12 06:04:24;;;;;;;;;;;;;;;3.35;100.00;98705.81;5002622;28;19917;-73
2022/12/12 06:06:50;;;;;;;;;;;;;;;3.45;100.00;98715.91;5004857;28;19956;-73
2022/12/12 06:09:15;;;;;;;;;;;;;;;3.27;100.00;98709.25;5003045;28;19981;-74
2022/12/12 06:11:40;;;;;;;;;;;;;;;3.07;100.00;98712.75;5004057;28;19917;-73
2022/12/12 06:14:05;;;;;;;;;;;;;;;3.23;100.00;98720.31;5004410;28;19918;-74
2022/12/12 06:16:31;;;;;;;;;;;;;;;2.79;100.00;98713.78;5007818;28;19953;-73
2022/12/12 06:18:56;;;;;;;;;;;;;;;2.81;100.00;98725.66;5007506;28;19918;-73
2022/12/12 06:21:21;;;;;;;;;;;;;;;2.71;100.00;98736.69;5007783;28;19948;-75
2022/12/12 06:23:47;;;;;;;;;;;;;;;2.83;100.00;98741.75;5006224;28;19921;-74
2022/12/12 06:26:13;;;;;;;;;;;;;;;2.91;100.00;98740.00;5007753;28;21079;-74
2022/12/12 06:28:38;;;;;;;;;;;;;;;2.49;100.00;98730.88;5006191;28;19920;-74
2022/12/12 06:31:04;;;;;;;;;;;;;;;2.83;100.00;98744.28;5006134;28;19944;-74
2022/12/12 06:33:31;;;;;;;;;;;;;;;2.76;100.00;98752.81;5005385;28;19964;-74
2022/12/12 06:36:12;;;;;;;;;;;;;;;3.16;100.00;98769.53;5007502;28;19935;-74
2022/12/12 06:38:38;;;;;;;;;;;;;;;3.06;100.00;98766.22;5005442;28;19979;-74
2022/12/12 06:41:10;;;;;;;;;;;;;;;2.99;100.00;98767.06;5005964;28;19917;-74
2022/12/12 06:43:35;;;;;;;;;;;;;;;3.41;100.00;98775.31;5005376;28;19924;-74
2022/12/12 06:46:04;;;;;;;;;;;;;;;3.09;100.00;98763.66;5005683;28;19917;-74
2022/12/12 06:48:30;;;;;;;;;;;;;;;2.87;100.00;98760.34;5007162;28;19913;-74
2022/12/12 06:50:55;;;;;;;;;;;;;;;2.95;100.00;98762.88;5007266;28;19987;-74
2022/12/12 06:53:21;;;;;;;;;;;;;;;3.11;100.00;98756.84;5007066;28;19937;-74
2022/12/12 06:55:46;;;;;;;;;;;;;;;3.33;100.00;98762.63;5006841;28;20016;-74
2022/12/12 06:58:11;;;;;;;;;;;;;;;3.30;100.00;98758.41;5005316;28;20537;-74
2022/12/12 07:00:36;;;;;;;;;;;;;;;3.35;100.00;98756.69;5007179;28;19913;-74
2022/12/12 07:03:01;;;;;;;;;;;;;;;3.34;100.00;98749.06;5005905;28;20000;-74
2022/12/12 07:05:27;;;;;;;;;;;;;;;2.79;100.00;98736.69;5005547;28;20396;-74
2022/12/12 07:07:52;;;;;;;;;;;;;;;3.23;100.00;98751.69;5006770;28;19913;-75
2022/12/12 07:10:17;;;;;;;;;;;;;;;3.37;100.00;98749.03;5006576;28;19940;-74
2022/12/12 07:12:43;;;;;;;;;;;;;;;3.39;100.00;98744.78;5007112;28;19917;-74
2022/12/12 07:15:08;;;;;;;;;;;;;;;3.43;100.00;98748.16;5006686;28;20032;-74
2022/12/12 07:17:33;;;;;;;;;;;;;;;3.46;100.00;98743.03;5006762;28;19943;-74
2022/12/12 07:19:59;;;;;;;;;;;;;;;3.32;100.00;98740.59;5006352;28;19976;-74
2022/12/12 07:22:24;;;;;;;;;;;;;;;2.74;100.00;98729.06;5006811;28;19917;-74
2022/12/12 07:24:49;;;;;;;;;;;;;;;2.90;100.00;98738.31;5006751;28;19987;-74
2022/12/12 07:27:15;;;;;;;;;;;;;;;1.97;100.00;98736.94;5005896;28;19924;-74
2022/12/12 07:29:40;;;;;;;;;;;;;;;1.87;100.00;98755.56;5006388;28;19944;-74
2022/12/12 07:32:05;;;;;;;;;;;;;;;1.80;100.00;98764.03;5005437;28;19971;-74
2022/12/12 07:34:31;;;;;;;;;;;;;;;2.01;100.00;98793.66;5006391;28;20008;-74
2022/12/12 07:36:56;;;;;;;;;;;;;;;2.51;100.00;98821.53;5006576;28;20347;-74
2022/12/12 07:39:21;;;;;;;;;;;;;;;2.20;100.00;98812.28;5006196;28;19917;-74
2022/12/12 07:41:47;;;;;;;;;;;;;;;2.53;100.00;98828.28;5004324;28;19917;-72
2022/12/12 07:44:12;;;;;;;;;;;;;;;2.76;100.00;98831.63;5006347;28;19928;-72
2022/12/12 07:46:37;;;;;;;;;;;;;;;2.32;100.00;98819.84;5006055;28;20553;-74
2022/12/12 07:49:02;;;;;;;;;;;;;;;2.04;100.00;98817.34;5005293;28;19917;-73
2022/12/12 07:51:28;;;;;;;;;;;;;;;2.46;100.00;98838.50;4986186;28;19940;-73
2022/12/12 07:53:54;;;;;;;;;;;;;;;2.37;100.00;98843.56;5003063;28;19957;-73
2022/12/12 07:56:19;;;;;;;;;;;;;;;2.92;100.00;98858.69;5004488;28;19995;-73
2022/12/12 07:58:44;;;;;;;;;;;;;;;3.05;100.00;98853.56;5002292;28;19924;-73
2022/12/12 08:01:10;;;;;;;;;;;;;;;3.29;100.00;98858.53;5003981;28;19921;-73
2022/12/12 08:03:35;;;;;;;;;;;;;;;3.44;100.00;98839.78;5004299;28;19928;-73
2022/12/12 08:06:02;;;;;;;;;;;;;;;2.40;100.00;98822.41;5005823;28;20967;-73
2022/12/12 08:08:27;;;;;;;;;;;;;;;1.93;100.00;98826.66;5005407;28;19959;-73
2022/12/12 08:10:53;;;;;;;;;;;;;;;2.54;100.00;98846.09;5005259;28;20760;-72
2022/12/12 08:13:18;;;;;;;;;;;;;;;1.55;100.00;98837.66;5005884;28;19936;-73
2022/12/12 08:15:43;;;;;;;;;;;;;;;2.53;100.00;98882.50;5005619;28;20284;-73
2022/12/12 08:18:08;;;;;;;;;;;;;;;2.77;100.00;98888.41;5005309;28;20308;-73
2022/12/12 08:20:34;;;;;;;;;;;;;;;2.34;100.00;98879.16;5005333;28;19972;-72
2022/12/12 08:22:59;;;;;;;;;;;;;;;2.23;100.00;98878.31;5005369;28;19926;-73
2022/12/12 08:25:24;;;;;;;;;;;;;;;2.90;100.00;98910.44;5005327;28;19924;-73
2022/12/12 08:27:49;;;;;;;;;;;;;;;3.38;100.00;98915.34;5005494;28;19932;-72
2022/12/12 08:30:15;;;;;;;;;;;;;;;3.42;100.00;98900.06;5004959;28;19917;-73
2022/12/12 08:32:40;;;;;;;;;;;;;;;3.63;100.00;98893.16;5005321;28;19921;-73
2022/12/12 08:35:06;;;;;;;;;;;;;;;3.11;100.00;98868.81;5004876;28;19918;-73
2022/12/12 08:37:31;;;;;;;;;;;;;;;3.49;100.00;98865.19;5003764;28;19925;-73
2022/12/12 08:39:56;;;;;;;;;;;;;;;3.69;100.00;98865.94;5004815;28;19991;-73
2022/12/12 08:42:21;;;;;;;;;;;;;;;3.85;100.00;98858.19;5005398;28;20358;-72
2022/12/12 08:44:47;;;;;;;;;;;;;;;3.37;100.00;98839.84;5005123;28;20479;-73
2022/12/12 08:47:12;;;;;;;;;;;;;;;2.30;100.00;98822.44;5005140;28;20584;-73
2022/12/12 08:49:38;;;;;;;;;;;;;;;2.84;100.00;98846.84;5004990;28;20020;-72
2022/12/12 08:52:06;;;;;;;;;;;;;;;2.45;100.00;98851.19;5005251;28;19918;-72
2022/12/12 08:54:31;;;;;;;;;;;;;;;2.82;100.00;98871.44;5003436;28;19932;-72
2022/12/12 08:56:56;;;;;;;;;;;;;;;2.97;100.00;98881.56;5004998;28;19913;-72
2022/12/12 08:59:21;;;;;;;;;;;;;;;3.22;100.00;98881.50;5003004;28;19973;-72
2022/12/12 09:01:47;;;;;;;;;;;;;;;3.51;100.00;98879.66;5004979;28;19914;-72
2022/12/12 09:04:12;;;;;;;;;;;;;;;3.22;100.00;98878.94;5004530;28;19928;-72
2022/12/12 09:06:37;;;;;;;;;;;;;;;3.46;100.00;98870.31;5004414;28;19917;-72
2022/12/12 09:09:02;;;;;;;;;;;;;;;3.84;100.00;98865.00;5002581;28;19917;-72
2022/12/12 09:11:28;;;;;;;;;;;;;;;3.67;100.00;98860.03;5003119;28;20012;-72
2022/12/12 09:13:53;;;;;;;;;;;;;;;3.87;100.00;98851.38;5004281;28;20423;-72
2022/12/12 09:16:20;;;;;;;;;;;;;;;4.01;100.00;98846.19;5004491;28;19917;-72
2022/12/12 09:18:45;;;;;;;;;;;;;;;4.06;100.00;98842.75;5002359;28;20000;-72
2022/12/12 09:21:11;;;;;;;;;;;;;;;4.07;100.00;98841.88;5003033;28;19937;-72
2022/12/12 09:23:36;;;;;;;;;;;;;;;4.13;100.00;98834.19;5004180;28;20012;-72
2022/12/12 09:26:05;;;;;;;;;;;;;;;4.07;100.00;98834.25;5004530;28;19924;-72
2022/12/12 09:28:30;;;;;;;;;;;;;;;3.70;100.00;98829.44;5002561;28;19937;-72
2022/12/12 09:30:55;;;;;;;;;;;;;;;3.96;100.00;98836.03;5002992;28;19914;-72
2022/12/12 09:33:20;;;;;;;;;;;;;;;4.27;100.00;98843.44;5004352;28;19924;-72
2022/12/12 09:35:45;;;;;;;;;;;;;;;4.19;100.00;98834.13;5004554;28;19913;-72
2022/12/12 09:38:11;;;;;;;;;;;;;;;4.16;100.00;98834.16;5003948;28;19988;-72
2022/12/12 09:40:55;;;;;;;;;;;;;;;4.02;100.00;98825.78;5004090;28;20221;-72
2022/12/12 09:43:21;;;;;;;;;;;;;;;3.88;100.00;98819.97;5004188;28;19924;-72
2022/12/12 09:45:46;;;;;;;;;;;;;;;4.00;100.00;98822.41;5003298;28;19917;-72
2022/12/12 09:48:15;;;;;;;;;;;;;;;4.26;100.00;98828.97;4986164;28;19921;-72
2022/12/12 09:50:41;;;;;;;;;;;;;;;4.19;100.00;98826.47;5005930;28;20408;-72
2022/12/12 09:53:10;;;;;;;;;;;;;;;4.02;100.00;98813.06;5007151;28;19940;-71
2022/12/12 09:55:46;;;;;;;;;;;;;;;4.25;100.00;98824.75;5007068;28;20651;-72
2022/12/12 09:58:27;;;;;;;;;;;;;;;4.46;100.00;98821.97;5006244;28;19921;-72
2022/12/12 10:01:10;;;;;;;;;;;;;;;4.61;100.00;98826.94;5008230;28;20438;-72
2022/12/12 10:03:42;;;;;;;;;;;;;;;4.68;100.00;98816.66;5006711;28;19917;-72
2022/12/12 10:06:07;;;;;;;;;;;;;;;4.65;100.00;98806.47;5007966;28;19918;-72
2022/12/12 10:08:33;;;;;;;;;;;;;;;4.76;100.00;98800.38;4990889;28;19975;-72
2022/12/12 10:11:02;;;;;;;;;;;;;;;4.76;100.00;98790.19;5008074;28;20267;-72
2022/12/12 10:13:28;;;;;;;;;;;;;;;4.54;100.00;98791.31;4992427;28;19996;-72
2022/12/12 10:15:58;;;;;;;;;;;;;;;4.56;100.00;98794.66;5007523;28;19917;-71
2022/12/12 10:18:26;;;;;;;;;;;;;;;4.83;100.00;98798.59;5006202;28;20342;-71
2022/12/12 10:20:52;;;;;;;;;;;;;;;5.03;100.00;98804.31;5006135;28;20008;-72
2022/12/12 10:23:20;;;;;;;;;;;;;;;4.64;100.00;98794.59;5007385;28;19920;-72
2022/12/12 10:25:50;;;;;;;;;;;;;;;4.90;100.00;98794.28;5007703;28;19979;-72
2022/12/12 10:28:17;;;;;;;;;;;;;;;5.03;100.00;98788.16;5006179;28;19983;-72
2022/12/12 10:30:49;;;;;;;;;;;;;;;4.92;100.00;98783.19;5006477;28;19917;-72
2022/12/12 10:33:21;;;;;;;;;;;;;;;5.01;100.00;98788.16;5006336;28;19949;-72
2022/12/12 10:35:52;;;;;;;;;;;;;;;4.73;100.00;98785.13;5006606;28;19928;-72
2022/12/12 10:38:17;;;;;;;;;;;;;;;4.86;100.00;98784.97;5005699;28;19928;-73
2022/12/12 10:40:51;;;;;;;;;;;;;;;4.38;100.00;98777.88;5007257;28;20376;-72
2022/12/12 10:43:21;;;;;;;;;;;;;;;4.01;100.00;98773.13;5006403;28;20299;-72
2022/12/12 10:45:47;;;;;;;;;;;;;;;4.02;100.00;98782.47;5006199;28;19918;-73
2022/12/12 10:48:12;;;;;;;;;;;;;;;3.91;100.00;98780.03;5005397;28;19957;-72
2022/12/12 10:50:40;;;;;;;;;;;;;;;4.04;100.00;98782.44;5005910;28;19917;-73
2022/12/12 10:53:05;;;;;;;;;;;;;;;4.53;100.00;98792.16;5006049;28;19928;-72
2022/12/12 10:55:36;;;;;;;;;;;;;;;4.78;100.00;98787.63;5005996;28;19922;-72
2022/12/12 10:58:02;;;;;;;;;;;;;;;4.67;100.00;98776.69;5005311;28;19948;-72
2022/12/12 11:00:38;;;;;;;;;;;;;;;5.19;100.00;98788.78;4996497;28;20000;-72
2022/12/12 11:03:19;;;;;;;;;;;;;;;5.28;100.00;98773.34;5006499;28;20029;-73
2022/12/12 11:05:44;;;;;;;;;;;;;;;5.36;100.00;98761.34;5006512;28;20679;-72
2022/12/12 11:08:26;;;;;;;;;;;;;;;5.09;100.00;98752.34;5005373;28;20008;-73
2022/12/12 11:11:18;;;;;;;;;;;;;;;5.30;100.00;98751.19;5006159;28;20395;-72
2022/12/12 11:13:45;;;;;;;;;;;;;;;5.42;100.00;98755.28;5006636;28;19963;-73
2022/12/12 11:16:27;;;;;;;;;;;;;;;5.29;100.00;98753.75;5005689;28;20406;-73
2022/12/12 11:19:21;;;;;;;;;;;;;;;4.94;100.00;98745.75;5005141;28;19998;-73
2022/12/12 11:21:47;;;;;;;;;;;;;;;5.35;100.00;98753.69;5001641;28;20371;-72
2022/12/12 11:24:13;;;;;;;;;;;;;;;5.29;100.00;98749.53;5006349;28;19918;-73
2022/12/12 11:26:58;;;;;;;;;;;;;;;5.15;100.00;98741.19;5006500;28;19913;-72
2022/12/12 11:29:32;;;;;;;;;;;;;;;5.07;100.00;98740.47;5005745;28;19924;-73
2022/12/12 11:31:57;;;;;;;;;;;;;;;4.49;100.00;98744.59;5004715;28;19917;-72
2022/12/12 11:34:24;;;;;;;;;;;;;;;4.88;100.00;98750.06;5004836;28;19924;-72
2022/12/12 11:36:49;;;;;;;;;;;;;;;5.21;100.00;98756.44;5005254;28;19975;-73
2022/12/12 11:39:22;;;;;;;;;;;;;;;5.30;100.00;98756.31;5005894;28;19943;-72
2022/12/12 11:41:57;;;;;;;;;;;;;;;5.21;100.00;98753.88;5004731;28;19932;-72
2022/12/12 11:44:26;;;;;;;;;;;;;;;5.27;100.00;98753.81;5004909;28;19921;-73
2022/12/12 11:46:51;;;;;;;;;;;;;;;5.09;100.00;98746.41;5006217;28;19921;-73
2022/12/12 11:49:17;;;;;;;;;;;;;;;5.28;100.00;98742.72;5004346;28;19921;-72
2022/12/12 11:51:42;;;;;;;;;;;;;;;5.21;100.00;98744.50;5006117;28;19913;-72
2022/12/12 11:54:12;;;;;;;;;;;;;;;5.19;100.00;98737.75;5004771;28;19924;-73
2022/12/12 11:56:52;;;;;;;;;;;;;;;5.24;100.00;98735.97;4973836;28;20008;-72
2022/12/12 11:59:33;;;;;;;;;;;;;;;5.20;100.00;98735.19;5003960;28;19918;-73
2022/12/12 12:02:17;;;;;;;;;;;;;;;5.41;100.00;98734.00;5005938;28;19925;-72
2022/12/12 12:05:00;;;;;;;;;;;;;;;5.36;100.00;98732.38;5006082;28;19929;-72
2022/12/12 12:07:37;;;;;;;;;;;;;;;5.43;100.00;98734.84;5005944;28;19927;-74
2022/12/12 12:10:05;;;;;;;;;;;;;;;5.59;100.00;98726.94;5003886;28;19959;-72
2022/12/12 12:12:41;;;;;;;;;;;;;;;5.55;100.00;98738.06;5005348;28;19913;-73
2022/12/12 12:15:06;;;;;;;;;;;;;;;4.79;100.00;98723.00;5004371;28;20407;-72
2022/12/12 12:17:45;;;;;;;;;;;;;;;5.36;100.00;98733.25;5005543;28;19982;-72
2022/12/12 12:20:16;;;;;;;;;;;;;;;5.45;100.00;98730.53;5004291;28;19921;-73
2022/12/12 12:23:12;;;;;;;;;;;;;;;4.25;100.00;98708.34;5004359;28;20291;-72
2022/12/12 12:25:41;;;;;;;;;;;;;;;4.52;100.00;98719.91;4985860;28;19917;-72
2022/12/12 12:28:25;;;;;;;;;;;;;;;5.00;100.00;98724.41;5005400;28;19979;-73
2022/12/12 12:31:00;;;;;;;;;;;;;;;5.06;100.00;98726.03;5005758;28;20444;-72
2022/12/12 12:33:32;;;;;;;;;;;;;;;4.53;100.00;98724.16;5003941;28;19965;-73
2022/12/12 12:36:00;;;;;;;;;;;;;;;5.22;100.00;98732.59;5004175;28;19917;-72
2022/12/12 12:38:26;;;;;;;;;;;;;;;4.32;100.00;98732.06;5005207;28;19928;-72
2022/12/12 12:40:54;;;;;;;;;;;;;;;4.03;100.00;98730.66;5005029;28;20013;-73
2022/12/12 12:43:26;;;;;;;;;;;;;;;4.19;100.00;98741.53;5003818;28;20363;-72
2022/12/12 12:46:11;;;;;;;;;;;;;;;4.36;100.00;98744.75;5005042;28;20003;-73
2022/12/12 12:48:38;;;;;;;;;;;;;;;4.60;100.00;98753.81;5003976;28;19918;-73
2022/12/12 12:51:12;;;;;;;;;;;;;;;4.68;100.00;98751.19;5004810;28;19933;-73
2022/12/12 12:53:37;;;;;;;;;;;;;;;4.81;100.00;98749.31;5003165;28;19932;-73
2022/12/12 12:56:07;;;;;;;;;;;;;;;5.03;100.00;98752.44;5003385;28;20546;-73
2022/12/12 12:58:38;;;;;;;;;;;;;;;5.44;100.00;98754.38;5001350;28;19921;-72
2022/12/12 13:01:13;;;;;;;;;;;;;;;5.48;100.00;98734.75;5002215;28;19914;-73
2022/12/12 13:03:45;;;;;;;;;;;;;;;5.10;100.00;98713.19;5002238;28;19922;-73
2022/12/12 13:06:22;;;;;;;;;;;;;;;4.73;100.00;98707.75;5001988;28;20486;-72
2022/12/12 13:08:57;;;;;;;;;;;;;;;4.85;100.00;98712.69;5002762;28;19921;-72
2022/12/12 13:11:26;;;;;;;;;;;;;;;5.29;100.00;98723.13;5003271;28;19960;-72